createdAt,value
2016-04-22T00:00:42.382Z,1014.29
2016-04-22T00:01:42.369Z,1014.34
2016-04-22T00:02:42.356Z,1014.32
2016-04-22T00:03:42.348Z,1014.31
2016-04-22T00:04:42.355Z,1014.26
2016-04-22T00:05:42.342Z,1014.26
2016-04-22T00:06:42.329Z,1014.21
2016-04-22T00:07:42.332Z,1014.19
2016-04-22T00:08:42.319Z,1014.19
2016-04-22T00:09:42.322Z,1014.15
2016-04-22T00:10:42.309Z,1014.18
2016-04-22T00:11:42.311Z,1014.14
2016-04-22T00:12:42.299Z,1014.08
2016-04-22T00:13:42.286Z,1014.1
2016-04-22T00:14:42.289Z,1014.1
2016-04-22T00:15:42.791Z,1014.07
2016-04-22T00:16:42.481Z,1014.07
2016-04-22T00:17:42.249Z,1014.08
2016-04-22T00:18:42.253Z,1014.07
2016-04-22T00:19:42.255Z,1014.05
2016-04-22T00:20:42.242Z,1014.12
2016-04-22T00:21:42.229Z,1014.05
2016-04-22T00:22:42.232Z,1014.09
2016-04-22T00:23:42.219Z,1014.11
2016-04-22T00:24:42.628Z,1014.06
2016-04-22T00:25:42.209Z,1014.08
2016-04-22T00:26:42.212Z,1014.04
2016-04-22T00:27:42.183Z,1014.07
2016-04-22T00:28:42.185Z,1014.07
2016-04-22T00:29:42.173Z,1014.06
2016-04-22T00:30:42.160Z,1014.04
2016-04-22T00:31:42.163Z,1014.08
2016-04-22T00:32:42.149Z,1014.03
2016-04-22T00:33:42.152Z,1014.02
2016-04-22T00:34:42.154Z,1014.04
2016-04-22T00:35:42.127Z,1014.03
2016-04-22T00:36:42.146Z,1014.05
2016-04-22T00:37:42.133Z,1014.05
2016-04-22T00:38:42.120Z,1014.06
2016-04-22T00:39:42.107Z,1014.05
2016-04-22T00:40:42.094Z,1014.04
2016-04-22T00:41:42.082Z,1014.08
2016-04-22T00:42:42.084Z,1014.08
2016-04-22T00:43:42.070Z,1014.05
2016-04-22T00:44:42.058Z,1014.01
2016-04-22T00:45:42.060Z,1014.04
2016-04-22T00:46:42.048Z,1014.05
2016-04-22T00:47:42.050Z,1014.04
2016-04-22T00:48:42.037Z,1014.03
2016-04-22T00:49:42.023Z,1014.02
2016-04-22T00:50:42.027Z,1014.02
2016-04-22T00:51:42.014Z,1014.01
2016-04-22T00:52:42.017Z,1014.02
2016-04-22T00:53:42.004Z,1014
2016-04-22T00:54:41.992Z,1014
2016-04-22T00:55:41.994Z,1013.99
2016-04-22T00:56:41.980Z,1014.01
2016-04-22T00:57:41.967Z,1014
2016-04-22T00:58:41.970Z,1013.99
2016-04-22T00:59:41.958Z,1014.04
2016-04-22T01:00:41.960Z,1014.04
2016-04-22T01:01:41.947Z,1013.98
2016-04-22T01:02:41.933Z,1013.99
2016-04-22T01:03:41.921Z,1013.99
2016-04-22T01:04:41.924Z,1013.96
2016-04-22T01:05:41.911Z,1013.93
2016-04-22T01:06:41.898Z,1013.93
2016-04-22T01:07:41.901Z,1013.93
2016-04-22T01:08:41.888Z,1013.91
2016-04-22T01:09:41.874Z,1013.88
2016-04-22T01:10:41.877Z,1013.95
2016-04-22T01:11:41.865Z,1013.9
2016-04-22T01:12:42.086Z,1013.91
2016-04-22T01:13:41.838Z,1013.89
2016-04-22T01:14:41.841Z,1013.91
2016-04-22T01:15:41.829Z,1013.93
2016-04-22T01:16:41.831Z,1013.91
2016-04-22T01:17:41.818Z,1013.91
2016-04-22T01:18:41.806Z,1013.93
2016-04-22T01:19:41.808Z,1013.97
2016-04-22T01:20:41.795Z,1014
2016-04-22T01:21:41.782Z,1014
2016-04-22T01:22:41.785Z,1013.99
2016-04-22T01:23:41.772Z,1014.03
2016-04-22T01:24:41.775Z,1013.98
2016-04-22T01:25:41.762Z,1013.99
2016-04-22T01:26:41.748Z,1013.96
2016-04-22T01:27:41.751Z,1013.96
2016-04-22T01:28:41.739Z,1013.93
2016-04-22T01:29:42.038Z,1013.97
2016-04-22T01:30:42.463Z,1013.94
2016-04-22T01:31:41.700Z,1013.92
2016-04-22T01:32:41.702Z,1013.92
2016-04-22T01:33:41.689Z,1013.89
2016-04-22T01:34:41.770Z,1013.9
2016-04-22T01:35:41.680Z,1013.9
2016-04-22T01:36:41.666Z,1013.9
2016-04-22T01:37:41.669Z,1013.91
2016-04-22T01:38:41.656Z,1013.91
2016-04-22T01:39:41.690Z,1013.92
2016-04-22T01:40:41.630Z,1013.87
2016-04-22T01:41:41.633Z,1013.92
2016-04-22T01:42:42.496Z,1013.94
2016-04-22T01:43:41.607Z,1013.92
2016-04-22T01:44:41.594Z,1013.96
2016-04-22T01:45:41.596Z,1013.92
2016-04-22T01:46:41.584Z,1013.97
2016-04-22T01:47:41.587Z,1013.93
2016-04-22T01:48:41.574Z,1013.92
2016-04-22T01:49:41.560Z,1013.88
2016-04-22T01:50:41.563Z,1013.94
2016-04-22T01:51:41.551Z,1013.9
2016-04-22T01:52:41.537Z,1013.89
2016-04-22T01:53:41.525Z,1013.93
2016-04-22T01:54:41.528Z,1013.91
2016-04-22T01:55:41.515Z,1013.88
2016-04-22T01:56:41.501Z,1013.84
2016-04-22T01:57:41.504Z,1013.83
2016-04-22T01:58:41.491Z,1013.83
2016-04-22T01:59:41.478Z,1013.85
2016-04-22T02:00:41.481Z,1013.87
2016-04-22T02:01:41.468Z,1013.89
2016-04-22T02:02:41.470Z,1013.91
2016-04-22T02:03:41.458Z,1013.94
2016-04-22T02:04:41.461Z,1013.87
2016-04-22T02:05:41.432Z,1013.89
2016-04-22T02:06:41.435Z,1013.89
2016-04-22T02:07:41.422Z,1013.89
2016-04-22T02:08:41.409Z,1013.92
2016-04-22T02:09:41.411Z,1013.92
2016-04-22T02:10:41.399Z,1013.93
2016-04-22T02:11:41.386Z,1013.92
2016-04-22T02:12:41.372Z,1013.92
2016-04-22T02:13:41.375Z,1013.95
2016-04-22T02:14:41.363Z,1013.91
2016-04-22T02:15:41.349Z,1013.92
2016-04-22T02:16:41.602Z,1013.93
2016-04-22T02:17:41.340Z,1013.94
2016-04-22T02:18:41.326Z,1013.93
2016-04-22T02:19:41.313Z,1013.9
2016-04-22T02:21:41.304Z,1013.95
2016-04-22T02:22:41.290Z,1013.95
2016-04-22T02:23:41.293Z,1013.9
2016-04-22T02:24:41.279Z,1013.92
2016-04-22T02:25:41.282Z,1013.88
2016-04-22T02:27:41.960Z,1013.87
2016-04-22T02:28:41.244Z,1013.92
2016-04-22T02:29:41.247Z,1013.89
2016-04-22T02:30:41.234Z,1013.88
2016-04-22T02:31:41.220Z,1013.85
2016-04-22T02:32:41.223Z,1013.89
2016-04-22T02:33:41.257Z,1013.84
2016-04-22T02:34:41.197Z,1013.84
2016-04-22T02:35:41.184Z,1013.86
2016-04-22T02:36:41.187Z,1013.87
2016-04-22T02:37:41.174Z,1013.84
2016-04-22T02:38:41.161Z,1013.85
2016-04-22T02:39:41.164Z,1013.84
2016-04-22T02:40:41.151Z,1013.87
2016-04-22T02:41:41.138Z,1013.82
2016-04-22T02:42:41.141Z,1013.83
2016-04-22T02:43:41.128Z,1013.85
2016-04-22T02:44:41.115Z,1013.85
2016-04-22T02:45:41.102Z,1013.86
2016-04-22T02:46:41.088Z,1013.87
2016-04-22T02:47:41.091Z,1013.83
2016-04-22T02:48:41.079Z,1013.88
2016-04-22T02:49:41.065Z,1013.84
2016-04-22T02:50:41.068Z,1013.86
2016-04-22T02:51:41.071Z,1013.89
2016-04-22T02:52:41.043Z,1013.87
2016-04-22T02:53:41.732Z,1013.82
2016-04-22T02:54:41.048Z,1013.85
2016-04-22T02:55:41.019Z,1013.81
2016-04-22T02:56:41.007Z,1013.85
2016-04-22T02:57:41.198Z,1013.84
2016-04-22T02:58:42.824Z,1013.85
2016-04-22T02:59:40.984Z,1013.86
2016-04-22T03:00:40.970Z,1013.87
2016-04-22T03:01:40.973Z,1013.85
2016-04-22T03:02:41.617Z,1013.86
2016-04-22T03:03:40.947Z,1013.86
2016-04-22T03:04:40.950Z,1013.87
2016-04-22T03:05:40.952Z,1013.87
2016-04-22T03:06:40.924Z,1013.88
2016-04-22T03:07:40.927Z,1013.88
2016-04-22T03:08:40.913Z,1013.88
2016-04-22T03:09:40.900Z,1013.9
2016-04-22T03:10:40.888Z,1013.9
2016-04-22T03:11:40.891Z,1013.88
2016-04-22T03:12:40.878Z,1013.86
2016-04-22T03:13:40.865Z,1013.84
2016-04-22T03:14:40.852Z,1013.79
2016-04-22T03:15:40.855Z,1013.84
2016-04-22T03:16:40.841Z,1013.86
2016-04-22T03:17:40.829Z,1013.84
2016-04-22T03:18:40.832Z,1013.81
2016-04-22T03:19:40.818Z,1013.82
2016-04-22T03:20:40.805Z,1013.8
2016-04-22T03:21:40.793Z,1013.78
2016-04-22T03:22:40.795Z,1013.75
2016-04-22T03:23:40.782Z,1013.78
2016-04-22T03:24:40.770Z,1013.8
2016-04-22T03:25:40.773Z,1013.75
2016-04-22T03:26:40.760Z,1013.83
2016-04-22T03:27:40.746Z,1013.86
2016-04-22T03:28:40.734Z,1013.86
2016-04-22T03:29:40.720Z,1013.81
2016-04-22T03:30:40.723Z,1013.84
2016-04-22T03:31:40.710Z,1013.84
2016-04-22T03:32:40.697Z,1013.86
2016-04-22T03:33:40.700Z,1013.89
2016-04-22T03:34:40.686Z,1013.93
2016-04-22T03:35:40.674Z,1013.91
2016-04-22T03:36:40.692Z,1013.93
2016-04-22T03:37:40.663Z,1013.92
2016-04-22T03:38:40.651Z,1013.91
2016-04-22T03:39:40.638Z,1013.9
2016-04-22T03:40:40.844Z,1013.93
2016-04-22T03:41:40.831Z,1013.89
2016-04-22T03:42:40.614Z,1013.92
2016-04-22T03:43:40.602Z,1013.92
2016-04-22T03:44:40.605Z,1013.91
2016-04-22T03:45:40.591Z,1013.93
2016-04-22T03:46:40.579Z,1013.95
2016-04-22T03:47:40.582Z,1013.96
2016-04-22T03:48:40.568Z,1013.97
2016-04-22T03:49:40.555Z,1013.96
2016-04-22T03:50:40.542Z,1014.04
2016-04-22T03:51:40.545Z,1014.07
2016-04-22T03:52:40.532Z,1014.07
2016-04-22T03:53:40.519Z,1014.03
2016-04-22T03:54:40.507Z,1014.01
2016-04-22T03:55:40.510Z,1014.01
2016-04-22T03:56:40.496Z,1013.99
2016-04-22T03:57:40.484Z,1014.06
2016-04-22T03:58:40.486Z,1014.06
2016-04-22T03:59:40.473Z,1014.09
2016-04-22T04:00:40.460Z,1014.12
2016-04-22T04:01:40.462Z,1014.15
2016-04-22T04:02:40.450Z,1014.11
2016-04-22T04:03:40.436Z,1014.11
2016-04-22T04:04:40.439Z,1014.11
2016-04-22T04:05:40.426Z,1014.1
2016-04-22T04:06:40.413Z,1014.15
2016-04-22T04:07:40.401Z,1014.23
2016-04-22T04:08:40.388Z,1014.25
2016-04-22T04:09:40.391Z,1014.28
2016-04-22T04:10:40.378Z,1014.23
2016-04-22T04:11:40.380Z,1014.22
2016-04-22T04:12:40.539Z,1014.2
2016-04-22T04:13:40.354Z,1014.2
2016-04-22T04:14:40.341Z,1014.25
2016-04-22T04:15:40.328Z,1014.2
2016-04-22T04:16:41.705Z,1014.29
2016-04-22T04:17:40.318Z,1014.22
2016-04-22T04:18:40.821Z,1014.21
2016-04-22T04:19:40.510Z,1014.19
2016-04-22T04:20:40.295Z,1014.18
2016-04-22T04:21:40.673Z,1014.22
2016-04-22T04:22:40.299Z,1014.25
2016-04-22T04:23:40.324Z,1014.28
2016-04-22T04:24:40.352Z,1014.28
2016-04-22T04:25:40.393Z,1014.29
2016-04-22T04:26:40.419Z,1014.3
2016-04-22T04:27:40.434Z,1014.26
2016-04-22T04:28:40.451Z,1014.26
2016-04-22T04:29:40.454Z,1014.3
2016-04-22T04:30:40.454Z,1014.31
2016-04-22T04:31:40.456Z,1014.34
2016-04-22T04:32:40.469Z,1014.39
2016-04-22T04:33:40.461Z,1014.36
2016-04-22T04:34:40.469Z,1014.33
2016-04-22T04:35:40.460Z,1014.3
2016-04-22T04:36:40.469Z,1014.28
2016-04-22T04:37:40.459Z,1014.24
2016-04-22T04:38:40.448Z,1014.32
2016-04-22T04:39:40.453Z,1014.31
2016-04-22T04:40:40.441Z,1014.39
2016-04-22T04:41:40.446Z,1014.42
2016-04-22T04:42:40.435Z,1014.44
2016-04-22T04:43:40.438Z,1014.43
2016-04-22T04:44:40.425Z,1014.41
2016-04-22T04:45:40.428Z,1014.39
2016-04-22T04:46:40.431Z,1014.38
2016-04-22T04:47:40.419Z,1014.43
2016-04-22T04:48:40.407Z,1014.43
2016-04-22T04:49:40.410Z,1014.44
2016-04-22T04:50:40.397Z,1014.49
2016-04-22T04:51:40.385Z,1014.57
2016-04-22T04:52:40.388Z,1014.53
2016-04-22T04:53:40.391Z,1014.51
2016-04-22T04:54:40.377Z,1014.57
2016-04-22T04:55:40.380Z,1014.54
2016-04-22T04:56:40.382Z,1014.58
2016-04-22T04:57:40.369Z,1014.6
2016-04-22T04:58:40.372Z,1014.56
2016-04-22T04:59:40.374Z,1014.69
2016-04-22T05:00:40.362Z,1014.71
2016-04-22T05:01:40.365Z,1014.77
2016-04-22T05:02:40.367Z,1014.78
2016-04-22T05:03:41.104Z,1014.75
2016-04-22T05:04:40.357Z,1014.65
2016-04-22T05:05:40.345Z,1014.63
2016-04-22T05:06:40.348Z,1014.62
2016-04-22T05:07:40.350Z,1014.63
2016-04-22T05:08:40.353Z,1014.68
2016-04-22T05:09:40.340Z,1014.75
2016-04-22T05:10:40.343Z,1014.67
2016-04-22T05:11:40.346Z,1014.58
2016-04-22T05:12:40.348Z,1014.64
2016-04-22T05:13:40.367Z,1014.66
2016-04-22T05:14:40.338Z,1014.72
2016-04-22T05:15:40.326Z,1014.72
2016-04-22T05:16:40.328Z,1014.65
2016-04-22T05:17:40.331Z,1014.68
2016-04-22T05:18:40.334Z,1014.67
2016-04-22T05:19:40.321Z,1014.65
2016-04-22T05:20:40.323Z,1014.73
2016-04-22T05:21:40.326Z,1014.69
2016-04-22T05:22:40.329Z,1014.75
2016-04-22T05:23:40.331Z,1014.85
2016-04-22T05:24:40.318Z,1014.88
2016-04-22T05:25:40.320Z,1014.84
2016-04-22T05:26:40.323Z,1014.82
2016-04-22T05:27:40.326Z,1014.84
2016-04-22T05:28:40.329Z,1014.84
2016-04-22T05:29:40.347Z,1014.83
2016-04-22T05:30:40.334Z,1014.89
2016-04-22T05:31:40.478Z,1014.87
2016-04-22T05:32:40.324Z,1014.76
2016-04-22T05:33:40.327Z,1015
2016-04-22T05:34:40.330Z,1015.05
2016-04-22T05:35:40.332Z,1014.97
2016-04-22T05:36:40.335Z,1014.87
2016-04-22T05:37:40.353Z,1014.96
2016-04-22T05:38:40.341Z,1014.9
2016-04-22T05:39:40.344Z,1015.04
2016-04-22T05:40:40.345Z,1015.04
2016-04-22T05:41:40.349Z,1015.13
2016-04-22T05:42:40.351Z,1015.09
2016-04-22T05:43:40.369Z,1015.12
2016-04-22T05:44:40.357Z,1015.12
2016-04-22T05:45:40.359Z,1015.18
2016-04-22T05:46:40.362Z,1014.97
2016-04-22T05:47:40.365Z,1015.29
2016-04-22T05:48:40.367Z,1015.26
2016-04-22T05:49:40.370Z,1015.23
2016-04-22T05:50:40.372Z,1015.29
2016-04-22T05:51:40.375Z,1015.38
2016-04-22T05:52:40.378Z,1015.38
2016-04-22T05:53:40.380Z,1015.33
2016-04-22T05:54:40.398Z,1015.22
2016-04-22T05:55:40.386Z,1015.37
2016-04-22T05:56:40.404Z,1015.55
2016-04-22T05:57:40.406Z,1015.5
2016-04-22T05:58:40.410Z,1015.46
2016-04-22T05:59:40.412Z,1015.23
2016-04-22T06:00:40.415Z,1015.16
2016-04-22T06:01:40.417Z,1015.14
2016-04-22T06:02:40.420Z,1015.27
2016-04-22T06:03:40.423Z,1015.8
2016-04-22T06:04:40.442Z,1015.25
2016-04-22T06:05:40.428Z,1015.12
2016-04-22T06:06:40.447Z,1015.09
2016-04-22T06:07:40.450Z,1015.16
2016-04-22T06:08:40.469Z,1015.23
2016-04-22T06:09:40.454Z,1015.24
2016-04-22T06:10:40.473Z,1015.26
2016-04-22T06:11:40.460Z,1015.33
2016-04-22T06:12:40.463Z,1015.34
2016-04-22T06:14:40.469Z,1015.24
2016-04-22T06:15:40.470Z,1015.33
2016-04-22T06:16:40.473Z,1015.38
2016-04-22T06:17:40.476Z,1015.56
2016-04-22T06:18:40.479Z,1015.38
2016-04-22T06:19:40.481Z,1015.32
2016-04-22T06:20:40.484Z,1015.26
2016-04-22T06:21:40.471Z,1015.19
2016-04-22T06:22:41.583Z,1015.33
2016-04-22T06:23:40.492Z,1015.28
2016-04-22T06:24:40.792Z,1015.25
2016-04-22T06:25:40.686Z,1015.25
2016-04-22T06:26:40.485Z,1015.22
2016-04-22T06:27:40.784Z,1015.29
2016-04-22T06:28:40.490Z,1015.3
2016-04-22T06:29:40.492Z,1015.3
2016-04-22T06:30:40.496Z,1015.25
2016-04-22T06:31:40.483Z,1015.27
2016-04-22T06:32:40.501Z,1015.42
2016-04-22T06:33:40.504Z,1015.42
2016-04-22T06:34:40.491Z,1015.43
2016-04-22T06:35:40.494Z,1015.5
2016-04-22T06:36:40.497Z,1015.43
2016-04-22T06:37:40.499Z,1015.46
2016-04-22T06:38:40.502Z,1016.19
2016-04-22T06:39:40.488Z,1016.35
2016-04-22T06:40:40.491Z,1016.68
2016-04-22T06:41:40.494Z,1015.63
2016-04-22T06:42:40.496Z,1015.5
2016-04-22T06:43:40.484Z,1015.64
2016-04-22T06:44:40.487Z,1015.54
2016-04-22T06:45:40.490Z,1015.71
2016-04-22T06:47:40.495Z,1016.78
2016-04-22T06:48:41.279Z,1015.41
2016-04-22T06:49:41.001Z,1015.47
2016-04-22T06:50:40.487Z,1015.6
2016-04-22T06:51:40.849Z,1015.56
2016-04-22T06:52:40.492Z,1015.47
2016-04-22T06:53:40.512Z,1015.38
2016-04-22T06:54:40.497Z,1015.41
2016-04-22T06:55:40.500Z,1015.59
2016-04-22T06:56:41.081Z,1016.39
2016-04-22T06:57:40.490Z,1017.47
2016-04-22T06:58:41.493Z,1015.63
2016-04-22T06:59:40.496Z,1015.68
2016-04-22T07:00:40.498Z,1015.77
2016-04-22T07:01:40.782Z,1016.92
2016-04-22T07:02:40.503Z,1015.57
2016-04-22T07:03:40.491Z,1015.54
2016-04-22T07:04:40.494Z,1015.54
2016-04-22T07:05:42.511Z,1015.44
2016-04-22T07:06:40.499Z,1015.51
2016-04-22T07:07:40.502Z,1015.54
2016-04-22T07:08:40.504Z,1015.59
2016-04-22T07:09:40.507Z,1015.75
2016-04-22T07:10:40.510Z,1015.7
2016-04-22T07:11:40.497Z,1015.8
2016-04-22T07:12:40.500Z,1017.25
2016-04-22T07:13:40.502Z,1017.27
2016-04-22T07:14:40.505Z,1017.25
2016-04-22T07:15:40.507Z,1015.64
2016-04-22T07:16:40.510Z,1016.16
2016-04-22T07:17:40.513Z,1015.92
2016-04-22T07:18:40.499Z,1015.79
2016-04-22T07:19:40.502Z,1017.16
2016-04-22T07:20:40.505Z,1017.1
2016-04-22T07:21:40.507Z,1015.61
2016-04-22T07:22:40.510Z,1015.54
2016-04-22T07:23:40.513Z,1015.42
2016-04-22T07:24:40.515Z,1015.35
2016-04-22T07:25:40.534Z,1015.49
2016-04-22T07:26:40.521Z,1015.56
2016-04-22T07:27:40.523Z,1015.67
2016-04-22T07:28:40.526Z,1015.62
2016-04-22T07:29:40.545Z,1016.18
2016-04-22T07:30:40.532Z,1015.78
2016-04-22T07:32:40.553Z,1016.75
2016-04-22T07:33:40.539Z,1016.68
2016-04-22T07:35:40.561Z,1016.51
2016-04-22T07:36:40.564Z,1016.46
2016-04-22T07:37:40.567Z,1016.5
2016-04-22T07:38:40.585Z,1016.54
2016-04-22T07:39:40.588Z,1016.58
2016-04-22T07:40:40.591Z,1016.35
2016-04-22T07:41:41.202Z,1016.6
2016-04-22T07:42:41.658Z,1016.39
2016-04-22T07:43:40.614Z,1016.43
2016-04-22T07:44:40.632Z,1016.4
2016-04-22T07:45:40.979Z,1016.41
2016-04-22T07:46:40.654Z,1016.45
2016-04-22T07:47:40.656Z,1016.45
2016-04-22T07:48:40.971Z,1016.42
2016-04-22T07:49:40.677Z,1016.38
2016-04-22T07:50:40.695Z,1016.39
2016-04-22T07:51:40.698Z,1016.4
2016-04-22T07:52:40.716Z,1016.45
2016-04-22T07:53:40.718Z,1016.45
2016-04-22T07:54:40.737Z,1016.46
2016-04-22T07:55:40.756Z,1016.4
2016-04-22T07:56:40.774Z,1016.36
2016-04-22T07:57:40.777Z,1016.37
2016-04-22T07:58:40.796Z,1016.36
2016-04-22T07:59:40.814Z,1016.44
2016-04-22T08:00:40.832Z,1016.52
2016-04-22T08:01:40.850Z,1016.57
2016-04-22T08:02:40.852Z,1016.57
2016-04-22T08:03:40.871Z,1016.6
2016-04-22T08:04:42.296Z,1016.27
2016-04-22T08:05:41.141Z,1016.1
2016-04-22T08:06:41.989Z,1015.56
2016-04-22T08:07:40.944Z,1015.97
2016-04-22T08:08:40.947Z,1015.99
2016-04-22T08:09:40.966Z,1015.98
2016-04-22T08:10:40.968Z,1016.01
2016-04-22T08:11:40.986Z,1015.95
2016-04-22T08:12:41.005Z,1015.91
2016-04-22T08:13:43.085Z,1015.89
2016-04-22T08:14:41.041Z,1015.95
2016-04-22T08:15:41.044Z,1015.89
2016-04-22T08:16:41.062Z,1015.91
2016-04-22T08:17:41.080Z,1015.9
2016-04-22T08:18:41.099Z,1015.9
2016-04-22T08:19:41.102Z,1015.92
2016-04-22T08:20:41.120Z,1015.84
2016-04-22T08:21:41.138Z,1015.94
2016-04-22T08:22:41.157Z,1015.91
2016-04-22T08:23:41.174Z,1015.84
2016-04-22T08:24:41.224Z,1015.78
2016-04-22T08:25:41.212Z,1015.82
2016-04-22T08:26:41.198Z,1015.43
2016-04-22T08:27:41.217Z,1015.8
2016-04-22T08:28:41.235Z,1015.48
2016-04-22T08:29:41.237Z,1015.41
2016-04-22T08:30:41.256Z,1015.31
2016-04-22T08:31:41.275Z,1015.24
2016-04-22T08:32:41.292Z,1015.18
2016-04-22T08:33:41.295Z,1015.23
2016-04-22T08:34:41.298Z,1015.2
2016-04-22T08:35:41.316Z,1015.27
2016-04-22T08:36:41.320Z,1015.27
2016-04-22T08:37:41.337Z,1015.43
2016-04-22T08:38:41.339Z,1015.43
2016-04-22T08:39:41.342Z,1015.43
2016-04-22T08:40:41.361Z,1015.41
2016-04-22T08:41:41.364Z,1015.42
2016-04-22T08:42:41.383Z,1015.37
2016-04-22T08:43:41.385Z,1015.33
2016-04-22T08:44:41.403Z,1015.25
2016-04-22T08:45:41.406Z,1015.19
2016-04-22T08:46:41.408Z,1015.18
2016-04-22T08:47:41.427Z,1015.14
2016-04-22T08:48:41.414Z,1015.2
2016-04-22T08:49:41.416Z,1015.18
2016-04-22T08:51:41.421Z,1015.06
2016-04-22T08:52:41.441Z,1015.06
2016-04-22T08:53:41.443Z,1015.02
2016-04-22T08:54:41.446Z,1015.05
2016-04-22T08:55:41.449Z,1015.03
2016-04-22T08:56:41.451Z,1015.12
2016-04-22T08:57:41.453Z,1015.15
2016-04-22T08:58:41.440Z,1015.21
2016-04-22T08:59:41.476Z,1015.15
2016-04-22T09:00:41.462Z,1015.13
2016-04-22T09:01:42.059Z,1015.08
2016-04-22T09:02:41.451Z,1015.14
2016-04-22T09:03:41.454Z,1015.14
2016-04-22T09:04:41.457Z,1015.15
2016-04-22T09:05:41.459Z,1015.15
2016-04-22T09:06:41.462Z,1015.15
2016-04-22T09:07:41.465Z,1015.12
2016-04-22T09:08:41.453Z,1015.1
2016-04-22T09:09:41.470Z,1015.15
2016-04-22T09:10:41.458Z,1015.03
2016-04-22T09:11:41.460Z,1014.99
2016-04-22T09:12:41.463Z,1015.05
2016-04-22T09:13:41.465Z,1015.14
2016-04-22T09:14:41.468Z,1015.23
2016-04-22T09:15:41.472Z,1015.32
2016-04-22T09:16:41.474Z,1015.31
2016-04-22T09:17:41.477Z,1015.29
2016-04-22T09:18:41.463Z,1015.36
2016-04-22T09:19:41.466Z,1015.28
2016-04-22T09:20:41.469Z,1015.16
2016-04-22T09:21:41.471Z,1015.08
2016-04-22T09:22:41.474Z,1015.12
2016-04-22T09:23:41.984Z,1014.99
2016-04-22T09:24:41.470Z,1015.03
2016-04-22T09:25:41.473Z,1015
2016-04-22T09:26:41.476Z,1014.99
2016-04-22T09:27:42.260Z,1014.96
2016-04-22T09:28:41.467Z,1014.98
2016-04-22T09:29:41.484Z,1015.06
2016-04-22T09:30:41.471Z,1015.13
2016-04-22T09:31:41.475Z,1015.11
2016-04-22T09:32:42.805Z,1015.15
2016-04-22T09:33:42.791Z,1015.13
2016-04-22T09:34:41.482Z,1015.15
2016-04-22T09:35:41.470Z,1015.1
2016-04-22T09:36:41.472Z,1015.08
2016-04-22T09:37:41.476Z,1014.98
2016-04-22T09:38:41.478Z,1014.97
2016-04-22T09:39:41.465Z,1014.85
2016-04-22T09:40:41.483Z,1014.82
2016-04-22T09:41:41.470Z,1014.87
2016-04-22T09:42:41.473Z,1014.84
2016-04-22T09:43:41.475Z,1014.81
2016-04-22T09:44:41.478Z,1014.8
2016-04-22T09:45:41.481Z,1014.83
2016-04-22T09:46:41.469Z,1014.85
2016-04-22T09:47:41.487Z,1014.81
2016-04-22T09:48:41.474Z,1014.77
2016-04-22T09:49:41.477Z,1014.8
2016-04-22T09:50:41.479Z,1014.95
2016-04-22T09:51:41.482Z,1014.82
2016-04-22T09:52:41.468Z,1014.81
2016-04-22T09:53:41.471Z,1014.79
2016-04-22T09:54:41.474Z,1014.77
2016-04-22T09:55:41.477Z,1014.86
2016-04-22T09:56:41.480Z,1014.79
2016-04-22T09:57:41.482Z,1014.77
2016-04-22T09:58:41.485Z,1014.75
2016-04-22T09:59:41.487Z,1014.67
2016-04-22T10:00:41.490Z,1014.69
2016-04-22T10:01:41.493Z,1014.73
2016-04-22T10:02:41.480Z,1014.7
2016-04-22T10:03:41.484Z,1014.7
2016-04-22T10:04:41.485Z,1014.78
2016-04-22T10:05:41.473Z,1014.69
2016-04-22T10:06:41.475Z,1014.71
2016-04-22T10:07:41.478Z,1014.77
2016-04-22T10:13:38.446Z,1014.72
2016-04-22T10:14:37.746Z,1014.69
2016-04-22T10:15:37.686Z,1014.67
2016-04-22T10:16:37.689Z,1014.7
2016-04-22T10:17:37.691Z,1014.72
2016-04-22T10:18:37.694Z,1014.7
2016-04-22T10:19:37.697Z,1014.67
2016-04-22T10:20:37.747Z,1014.6
2016-04-22T10:21:37.687Z,1014.65
2016-04-22T10:22:38.377Z,1014.71
2016-04-22T10:23:37.692Z,1014.81
2016-04-22T10:24:37.695Z,1014.78
2016-04-22T10:25:37.682Z,1014.72
2016-04-22T10:26:37.684Z,1014.55
2016-04-22T10:27:37.687Z,1014.53
2016-04-22T10:28:37.690Z,1014.52
2016-04-22T10:29:37.678Z,1014.47
2016-04-22T10:30:37.680Z,1014.49
2016-04-22T10:31:37.683Z,1014.48
2016-04-22T10:32:37.686Z,1014.49
2016-04-22T10:33:37.689Z,1014.46
2016-04-22T10:34:37.692Z,1014.47
2016-04-22T10:35:37.694Z,1014.43
2016-04-22T10:36:37.696Z,1014.44
2016-04-22T10:37:37.699Z,1014.44
2016-04-22T10:38:37.686Z,1014.44
2016-04-22T10:39:37.689Z,1014.59
2016-04-22T10:40:37.675Z,1014.56
2016-04-22T10:42:37.681Z,1014.52
2016-04-22T10:44:37.686Z,1014.52
2016-04-22T10:45:37.674Z,1014.55
2016-04-22T10:46:37.676Z,1014.55
2016-04-22T10:47:37.679Z,1014.48
2016-04-22T10:48:37.682Z,1014.46
2016-04-22T10:49:37.668Z,1014.45
2016-04-22T10:50:37.687Z,1014.38
2016-04-22T10:51:37.673Z,1014.29
2016-04-22T10:52:37.676Z,1014.31
2016-04-22T10:53:38.257Z,1014.28
2016-04-22T10:54:37.682Z,1014.24
2016-04-22T10:55:37.684Z,1014.22
2016-04-22T10:56:37.671Z,1014.24
2016-04-22T10:57:37.831Z,1014.29
2016-04-22T10:58:37.676Z,1014.24
2016-04-22T10:59:37.679Z,1014.19
2016-04-22T11:00:37.667Z,1014.25
2016-04-22T11:01:37.685Z,1014.25
2016-04-22T11:02:37.672Z,1014.17
2016-04-22T11:03:37.675Z,1014.12
2016-04-22T11:04:37.677Z,1014.11
2016-04-22T11:05:37.665Z,1014.1
2016-04-22T11:06:37.668Z,1014.08
2016-04-22T11:07:37.670Z,1014.1
2016-04-22T11:08:37.672Z,1014.1
2016-04-22T11:09:37.675Z,1014.13
2016-04-22T11:10:37.678Z,1014.16
2016-04-22T11:11:37.665Z,1014.11
2016-04-22T11:12:37.668Z,1014.07
2016-04-22T11:13:37.671Z,1014.12
2016-04-22T11:14:37.674Z,1014.11
2016-04-22T11:15:37.660Z,1014.04
2016-04-22T11:16:37.679Z,1014.03
2016-04-22T11:17:37.665Z,1014.01
2016-04-22T11:18:37.668Z,1013.95
2016-04-22T11:19:37.671Z,1013.98
2016-04-22T11:20:37.674Z,1013.95
2016-04-22T11:21:37.685Z,1013.98
2016-04-22T11:22:37.670Z,1013.95
2016-04-22T11:23:37.657Z,1014.01
2016-04-22T11:24:37.660Z,1014
2016-04-22T11:25:37.662Z,1014
2016-04-22T11:26:37.650Z,1014.04
2016-04-22T11:27:37.653Z,1014.02
2016-04-22T11:28:37.796Z,1013.95
2016-04-22T11:29:37.642Z,1013.92
2016-04-22T11:30:37.645Z,1013.94
2016-04-22T11:31:37.648Z,1013.93
2016-04-22T11:32:37.651Z,1013.9
2016-04-22T11:33:37.638Z,1013.92
2016-04-22T11:34:37.655Z,1013.94
2016-04-22T11:35:37.644Z,1013.94
2016-04-22T11:36:37.646Z,1013.89
2016-04-22T11:37:37.632Z,1013.89
2016-04-22T11:38:37.635Z,1013.87
2016-04-22T11:39:37.638Z,1013.91
2016-04-22T11:40:37.641Z,1013.88
2016-04-22T11:41:37.830Z,1013.91
2016-04-22T11:42:38.240Z,1013.95
2016-04-22T11:43:37.649Z,1013.91
2016-04-22T11:44:37.636Z,1013.9
2016-04-22T11:45:37.638Z,1013.94
2016-04-22T11:46:37.640Z,1013.93
2016-04-22T11:47:37.628Z,1013.84
2016-04-22T11:48:37.631Z,1013.86
2016-04-22T11:49:37.634Z,1013.84
2016-04-22T11:50:37.636Z,1013.79
2016-04-22T11:51:37.623Z,1013.77
2016-04-22T11:52:37.626Z,1013.76
2016-04-22T11:53:37.629Z,1013.79
2016-04-22T11:54:37.615Z,1013.74
2016-04-22T11:55:37.634Z,1013.77
2016-04-22T11:56:37.620Z,1013.76
2016-04-22T11:57:37.624Z,1013.77
2016-04-22T11:58:37.611Z,1013.77
2016-04-22T11:59:37.614Z,1013.72
2016-04-22T12:00:38.898Z,1013.72
2016-04-22T12:01:37.603Z,1013.77
2016-04-22T12:02:38.137Z,1013.77
2016-04-22T12:03:38.015Z,1013.76
2016-04-22T12:04:37.611Z,1013.76
2016-04-22T12:05:38.224Z,1013.68
2016-04-22T12:06:37.602Z,1013.67
2016-04-22T12:07:37.604Z,1013.73
2016-04-22T12:08:37.607Z,1013.67
2016-04-22T12:09:38.219Z,1013.65
2016-04-22T12:10:37.612Z,1013.62
2016-04-22T12:11:37.599Z,1013.63
2016-04-22T12:12:37.585Z,1013.63
2016-04-22T12:13:37.604Z,1013.64
2016-04-22T12:14:37.591Z,1013.65
2016-04-22T12:15:37.594Z,1013.64
2016-04-22T12:16:37.582Z,1013.58
2016-04-22T12:17:37.585Z,1013.55
2016-04-22T12:18:37.634Z,1013.6
2016-04-22T12:19:38.091Z,1013.57
2016-04-22T12:20:37.578Z,1013.61
2016-04-22T12:21:37.597Z,1013.59
2016-04-22T12:22:37.584Z,1013.57